createdAt,value
2019-05-25T00:01:50.964Z,14.45
2019-05-25T00:04:22.333Z,13.87
2019-05-25T00:06:54.173Z,14.53
2019-05-25T00:09:25.650Z,13.38
2019-05-25T00:11:57.201Z,14.97
2019-05-25T00:14:28.746Z,10.23
2019-05-25T00:17:00.270Z,12.43
2019-05-25T00:19:31.917Z,13.93
2019-05-25T00:22:03.589Z,12.63
2019-05-25T00:24:35.091Z,11.40
2019-05-25T00:27:06.642Z,11.05
2019-05-25T00:29:38.179Z,10.48
2019-05-25T00:32:09.734Z,11.83
2019-05-25T00:34:41.137Z,11.57
2019-05-25T00:37:12.735Z,16.20
2019-05-25T00:39:44.132Z,13.25
2019-05-25T00:42:15.696Z,9.93
2019-05-25T00:44:47.158Z,8.48
2019-05-25T00:47:18.622Z,13.97
2019-05-25T00:49:49.985Z,9.63
2019-05-25T00:52:21.500Z,14.98
2019-05-25T00:54:52.933Z,9.78
2019-05-25T00:57:24.480Z,9.27
2019-05-25T00:59:55.877Z,14.13
2019-05-25T01:02:27.430Z,13.40
2019-05-25T01:04:58.998Z,11.63
2019-05-25T01:07:30.425Z,10.20
2019-05-25T01:10:01.862Z,15.53
2019-05-25T01:12:33.765Z,13.05
2019-05-25T01:15:06.835Z,12.43
2019-05-25T01:17:38.163Z,8.13
2019-05-25T01:20:11.303Z,12.83
2019-05-25T01:22:42.709Z,17.07
2019-05-25T01:25:15.402Z,18.43
2019-05-25T01:27:47.010Z,13.18
2019-05-25T01:30:18.565Z,10.78
2019-05-25T01:32:49.852Z,9.83
2019-05-25T01:35:21.392Z,14.15
2019-05-25T01:37:53.143Z,12.45
2019-05-25T01:40:24.653Z,9.40
2019-05-25T01:42:56.176Z,8.20
2019-05-25T01:45:27.716Z,10.47
2019-05-25T01:47:59.369Z,11.33
2019-05-25T01:50:31.007Z,11.88
2019-05-25T01:53:02.652Z,10.80
2019-05-25T01:55:34.289Z,14.00
2019-05-25T01:58:05.677Z,13.03
2019-05-25T02:00:37.227Z,9.50
2019-05-25T02:03:08.664Z,8.05
2019-05-25T02:05:40.168Z,11.07
2019-05-25T02:08:11.664Z,9.28
2019-05-25T02:10:43.128Z,9.73
2019-05-25T02:13:14.726Z,17.90
2019-05-25T02:15:46.205Z,16.25
2019-05-25T02:18:17.743Z,11.33
2019-05-25T02:20:49.297Z,9.05
2019-05-25T02:23:20.725Z,13.62
2019-05-25T02:25:52.227Z,11.97
2019-05-25T02:28:23.746Z,10.43
2019-05-25T02:30:55.332Z,11.07
2019-05-25T02:33:26.846Z,10.40
2019-05-25T02:35:58.302Z,10.23
2019-05-25T02:38:29.797Z,10.82
2019-05-25T02:41:01.262Z,8.70
2019-05-25T02:43:33.319Z,9.23
2019-05-25T02:48:34.997Z,10.03
2019-05-25T02:51:06.519Z,15.40
2019-05-25T02:53:37.964Z,8.50
2019-05-25T02:56:09.582Z,9.35
2019-05-25T02:58:41.012Z,11.97
2019-05-25T03:01:12.576Z,10.03
2019-05-25T03:03:44.087Z,12.47
2019-05-25T03:06:16.210Z,8.25
2019-05-25T03:11:17.778Z,13.20
2019-05-25T03:13:49.424Z,8.20
2019-05-25T03:16:21.029Z,9.38
2019-05-25T03:18:54.356Z,8.43
2019-05-25T03:21:25.846Z,8.45
2019-05-25T03:23:57.387Z,11.78
2019-05-25T03:26:28.923Z,12.85
2019-05-25T03:29:00.394Z,11.88
2019-05-25T03:31:31.762Z,7.97
2019-05-25T03:34:03.245Z,9.90
2019-05-25T03:36:34.761Z,9.13
2019-05-25T03:39:07.808Z,9.03
2019-05-25T03:41:39.455Z,7.53
2019-05-25T03:44:10.964Z,7.80
2019-05-25T03:46:42.556Z,9.58
2019-05-25T03:49:13.928Z,8.40
2019-05-25T03:51:45.504Z,10.05
2019-05-25T03:54:16.933Z,10.48
2019-05-25T03:56:48.383Z,11.90
2019-05-25T03:59:20.067Z,8.58
2019-05-25T04:01:51.540Z,8.88
2019-05-25T04:04:23.110Z,11.22
2019-05-25T04:06:54.680Z,7.55
2019-05-25T04:09:26.220Z,12.53
2019-05-25T04:11:57.819Z,8.35
2019-05-25T04:14:29.286Z,9.80
2019-05-25T04:17:00.755Z,15.88
2019-05-25T04:19:32.114Z,14.38
2019-05-25T04:22:03.611Z,12.88
2019-05-25T04:24:35.093Z,10.88
2019-05-25T04:27:06.599Z,11.85
2019-05-25T04:29:38.146Z,10.30
2019-05-25T04:32:09.687Z,11.83
2019-05-25T04:34:40.983Z,9.53
2019-05-25T04:37:12.667Z,12.33
2019-05-25T04:39:44.290Z,9.05
2019-05-25T04:42:15.724Z,15.10
2019-05-25T04:44:47.246Z,11.78
2019-05-25T04:47:26.652Z,9.45
2019-05-25T04:49:51.325Z,10.90
2019-05-25T04:52:22.912Z,10.15
2019-05-25T04:54:54.397Z,15.13
2019-05-25T04:57:26.004Z,11.33
2019-05-25T04:59:57.622Z,9.98
2019-05-25T05:02:28.925Z,9.95
2019-05-25T05:05:00.489Z,11.18
2019-05-25T05:07:32.005Z,9.33
2019-05-25T05:10:03.541Z,9.40
2019-05-25T05:12:34.786Z,12.18
2019-05-25T05:15:07.263Z,7.58
2019-05-25T05:17:38.732Z,9.58
2019-05-25T05:20:10.653Z,8.63
2019-05-25T05:22:42.150Z,7.58
2019-05-25T05:25:13.603Z,11.28
2019-05-25T05:27:45.025Z,11.97
2019-05-25T05:30:16.583Z,8.93
2019-05-25T05:32:48.029Z,9.90
2019-05-25T05:35:19.490Z,8.70
2019-05-25T05:37:51.051Z,9.73
2019-05-25T05:40:23.143Z,13.30
2019-05-25T05:42:55.194Z,10.53
2019-05-25T05:47:57.304Z,8.53
2019-05-25T05:50:28.871Z,8.90
2019-05-25T05:53:00.432Z,17.37
2019-05-25T05:55:33.354Z,12.45
2019-05-25T05:58:05.047Z,9.35
2019-05-25T06:00:36.632Z,8.40
2019-05-25T06:03:07.966Z,11.83
2019-05-25T06:05:39.643Z,10.98
2019-05-25T06:08:11.246Z,9.80
2019-05-25T06:10:42.591Z,11.57
2019-05-25T06:13:14.019Z,10.00
2019-05-25T06:15:45.519Z,9.85
2019-05-25T06:18:17.222Z,10.00
2019-05-25T06:20:48.727Z,13.08
2019-05-25T06:23:20.310Z,8.55
2019-05-25T06:25:51.788Z,13.13
2019-05-25T06:28:23.305Z,8.95
2019-05-25T06:30:54.945Z,15.55
2019-05-25T06:33:26.472Z,12.88
2019-05-25T06:35:58.055Z,11.08
2019-05-25T06:38:29.481Z,9.45
2019-05-25T06:41:00.899Z,12.03
2019-05-25T06:43:32.463Z,10.38
2019-05-25T06:46:04.000Z,13.53
2019-05-25T06:48:35.798Z,11.45
2019-05-25T06:51:07.515Z,12.80
2019-05-25T06:53:39.034Z,9.03
2019-05-25T06:56:10.609Z,8.98
2019-05-25T06:58:42.115Z,12.75
2019-05-25T07:01:13.531Z,11.43
2019-05-25T07:03:45.087Z,10.43
2019-05-25T07:06:16.602Z,11.80
2019-05-25T07:08:48.044Z,10.70
2019-05-25T07:11:19.644Z,19.55
2019-05-25T07:13:51.226Z,11.25
2019-05-25T07:16:22.785Z,11.30
2019-05-25T07:18:54.453Z,7.80
2019-05-25T07:21:25.999Z,10.05
2019-05-25T07:23:57.526Z,11.15
2019-05-25T07:26:29.111Z,8.58
2019-05-25T07:29:00.699Z,11.00
2019-05-25T07:31:32.143Z,12.18
2019-05-25T07:34:03.698Z,11.03
2019-05-25T07:36:35.247Z,10.45
2019-05-25T07:39:08.041Z,10.28
2019-05-25T07:41:39.541Z,10.13
2019-05-25T07:44:10.990Z,8.35
2019-05-25T07:46:42.641Z,7.40
2019-05-25T07:49:14.494Z,10.50
2019-05-25T07:51:46.058Z,9.85
2019-05-25T07:54:17.570Z,15.32
2019-05-25T07:56:49.154Z,11.57
2019-05-25T07:59:20.619Z,14.30
2019-05-25T08:01:52.232Z,7.30
2019-05-25T08:04:23.728Z,10.72
2019-05-25T08:06:55.333Z,8.73
2019-05-25T08:09:26.867Z,13.68
2019-05-25T08:11:58.402Z,9.45
2019-05-25T08:14:29.957Z,10.90
2019-05-25T08:17:01.569Z,12.10
2019-05-25T08:19:32.942Z,12.05
2019-05-25T08:22:04.478Z,12.47
2019-05-25T08:24:36.155Z,9.73
2019-05-25T08:27:07.781Z,11.33
2019-05-25T08:29:39.226Z,8.40
2019-05-25T08:32:10.732Z,12.37
2019-05-25T08:34:42.678Z,11.15
2019-05-25T08:39:44.473Z,9.85
2019-05-25T08:42:16.085Z,9.58
2019-05-25T08:44:47.634Z,10.95
2019-05-25T08:47:19.195Z,12.28
2019-05-25T08:49:50.670Z,13.10
2019-05-25T08:52:22.165Z,12.70
2019-05-25T08:54:53.686Z,10.75
2019-05-25T08:57:25.222Z,9.60
2019-05-25T08:59:56.711Z,12.43
2019-05-25T09:02:28.274Z,12.75
2019-05-25T09:05:00.333Z,8.38
2019-05-25T09:07:31.839Z,7.47
2019-05-25T09:10:03.178Z,7.62
2019-05-25T09:12:34.611Z,8.90
2019-05-25T09:15:07.144Z,8.78
2019-05-25T09:17:38.647Z,8.25
2019-05-25T09:20:11.382Z,9.78
2019-05-25T09:22:43.079Z,9.23
2019-05-25T09:25:14.672Z,7.58
2019-05-25T09:27:46.108Z,10.20
2019-05-25T09:30:17.778Z,11.05
2019-05-25T09:32:49.204Z,7.30
2019-05-25T09:35:20.798Z,9.53
2019-05-25T09:37:52.320Z,11.15
2019-05-25T09:40:23.827Z,11.85
2019-05-25T09:42:55.355Z,10.15
2019-05-25T09:45:26.815Z,10.90
2019-05-25T09:47:58.741Z,7.30
2019-05-25T09:50:30.094Z,9.35
2019-05-25T09:53:01.698Z,8.73
2019-05-25T09:55:33.276Z,13.03
2019-05-25T09:58:04.913Z,9.00
2019-05-25T10:00:40.061Z,11.03
2019-05-25T10:03:09.534Z,14.45
2019-05-25T10:05:41.213Z,11.28
2019-05-25T10:08:12.707Z,14.53
2019-05-25T10:10:44.424Z,22.15
2019-05-25T10:13:15.813Z,9.13
2019-05-25T10:15:47.453Z,10.50
2019-05-25T10:18:19.006Z,8.98
2019-05-25T10:20:50.454Z,8.98
2019-05-25T10:23:21.984Z,12.13
2019-05-25T10:25:53.451Z,10.32
2019-05-25T10:28:25.151Z,14.87
2019-05-25T10:30:56.516Z,11.15
2019-05-25T10:33:28.110Z,10.13
2019-05-25T10:35:59.608Z,17.80
2019-05-25T10:38:31.189Z,13.80
2019-05-25T10:41:02.769Z,12.60
2019-05-25T10:43:34.387Z,12.98
2019-05-25T10:46:05.940Z,16.25
2019-05-25T10:48:37.493Z,12.13
2019-05-25T10:51:09.086Z,15.38
2019-05-25T10:53:40.658Z,12.75
2019-05-25T10:56:12.041Z,14.05
2019-05-25T10:58:43.521Z,12.47
2019-05-25T11:01:15.185Z,12.90
2019-05-25T11:03:46.762Z,13.50
2019-05-25T11:06:18.211Z,17.55
2019-05-25T11:08:49.566Z,15.70
2019-05-25T11:11:21.258Z,17.52
2019-05-25T11:13:53.271Z,19.95
2019-05-25T11:18:54.922Z,20.00
2019-05-25T11:21:27.073Z,18.50
2019-05-25T11:23:58.717Z,15.50
2019-05-25T11:26:30.380Z,16.20
2019-05-25T11:29:01.854Z,16.95
2019-05-25T11:31:33.545Z,18.40
2019-05-25T11:34:05.074Z,18.67
2019-05-25T11:36:36.894Z,20.30
2019-05-25T11:39:09.237Z,21.65
2019-05-25T11:41:40.722Z,19.70
2019-05-25T11:44:12.324Z,20.55
2019-05-25T11:46:43.802Z,16.97
2019-05-25T11:49:22.476Z,16.73
2019-05-25T11:51:48.249Z,18.70
2019-05-25T11:54:19.995Z,18.95
2019-05-25T11:56:51.593Z,19.27
2019-05-25T11:59:23.077Z,22.25
2019-05-25T12:01:54.782Z,21.82
2019-05-25T12:04:26.228Z,22.30
2019-05-25T12:06:57.869Z,19.73
2019-05-25T12:09:29.405Z,21.82
2019-05-25T12:12:00.807Z,21.62
2019-05-25T12:14:32.388Z,22.95
2019-05-25T12:17:03.998Z,20.62
2019-05-25T12:19:35.519Z,23.90
2019-05-25T12:22:07.524Z,22.77
2019-05-25T12:27:08.990Z,22.22
2019-05-25T12:29:40.666Z,20.47
2019-05-25T12:32:12.260Z,21.00
2019-05-25T12:34:43.920Z,27.07
2019-05-25T12:37:15.482Z,23.18
2019-05-25T12:39:46.965Z,20.23
2019-05-25T12:42:18.750Z,21.27
2019-05-25T12:44:50.209Z,22.65
2019-05-25T12:47:21.832Z,24.92
2019-05-25T12:49:53.359Z,26.10
2019-05-25T12:52:24.812Z,21.05
2019-05-25T12:54:56.639Z,20.82
2019-05-25T12:57:28.160Z,25.75
2019-05-25T13:00:14.232Z,21.90
2019-05-25T13:02:32.234Z,24.70
2019-05-25T13:05:03.789Z,21.95
2019-05-25T13:07:35.299Z,17.90
2019-05-25T13:10:08.793Z,22.05
2019-05-25T13:12:40.361Z,17.80
2019-05-25T13:15:12.014Z,21.70
2019-05-25T13:17:43.506Z,19.95
2019-05-25T13:20:15.435Z,17.73
2019-05-25T13:22:46.789Z,17.45
2019-05-25T13:25:18.730Z,18.12
2019-05-25T13:27:50.312Z,18.12
2019-05-25T13:30:22.070Z,20.32
2019-05-25T13:32:53.705Z,25.90
2019-05-25T13:35:25.248Z,19.75
2019-05-25T13:37:56.781Z,16.80
2019-05-25T13:40:28.161Z,20.32
2019-05-25T13:42:59.690Z,19.65
2019-05-25T13:45:31.298Z,20.10
2019-05-25T13:48:02.841Z,14.68
2019-05-25T13:50:34.282Z,13.62
2019-05-25T13:53:05.700Z,11.83
2019-05-25T13:55:37.267Z,12.98
2019-05-25T13:58:08.819Z,11.15
2019-05-25T14:00:40.366Z,14.15
2019-05-25T14:03:11.904Z,13.93
2019-05-25T14:05:43.360Z,11.88
2019-05-25T14:08:14.741Z,12.55
2019-05-25T14:10:46.335Z,17.92
2019-05-25T14:13:17.835Z,11.45
2019-05-25T14:15:49.604Z,20.15
2019-05-25T14:18:21.093Z,12.05
2019-05-25T14:20:52.721Z,15.28
2019-05-25T14:23:24.848Z,10.78
2019-05-25T14:28:26.749Z,12.70
2019-05-25T14:30:58.170Z,11.60
2019-05-25T14:33:29.656Z,14.10
2019-05-25T14:36:01.133Z,11.78
2019-05-25T14:38:32.785Z,13.58
2019-05-25T14:41:04.348Z,11.20
2019-05-25T14:43:35.786Z,12.68
2019-05-25T14:46:07.612Z,13.43
2019-05-25T14:48:38.893Z,11.97
2019-05-25T14:51:10.405Z,12.83
2019-05-25T14:53:41.958Z,13.90
2019-05-25T14:56:13.363Z,12.00
2019-05-25T14:58:44.979Z,11.70
2019-05-25T15:01:16.568Z,12.37
2019-05-25T15:03:48.050Z,12.95
2019-05-25T15:06:20.924Z,9.35
2019-05-25T15:08:52.655Z,12.05
2019-05-25T15:11:24.085Z,9.73
2019-05-25T15:13:55.620Z,12.35
2019-05-25T15:16:27.243Z,13.30
2019-05-25T15:18:58.614Z,11.38
2019-05-25T15:21:30.372Z,9.90
2019-05-25T15:24:02.014Z,12.05
2019-05-25T15:26:33.454Z,13.40
2019-05-25T15:29:05.036Z,10.70
2019-05-25T15:31:36.438Z,15.48
2019-05-25T15:34:08.089Z,13.63
2019-05-25T15:36:39.529Z,11.22
2019-05-25T15:39:10.924Z,12.45
2019-05-25T15:41:42.320Z,12.57
2019-05-25T15:44:13.790Z,12.37
2019-05-25T15:46:45.799Z,13.48
2019-05-25T15:49:17.616Z,19.32
2019-05-25T15:51:49.057Z,14.03
2019-05-25T15:54:20.932Z,14.23
2019-05-25T15:56:52.427Z,16.20
2019-05-25T15:59:23.980Z,13.95
2019-05-25T16:01:55.372Z,14.05
2019-05-25T16:04:26.826Z,14.83
2019-05-25T16:06:58.350Z,11.40
2019-05-25T16:09:29.724Z,13.25
2019-05-25T16:12:01.112Z,11.73
2019-05-25T16:14:32.653Z,10.90
2019-05-25T16:17:04.159Z,13.53
2019-05-25T16:19:35.800Z,12.65
2019-05-25T16:22:07.242Z,16.35
2019-05-25T16:24:38.814Z,14.50
2019-05-25T16:27:10.378Z,15.98
2019-05-25T16:29:41.911Z,15.90
2019-05-25T16:32:13.441Z,17.05
2019-05-25T16:34:44.807Z,14.15
2019-05-25T16:37:16.727Z,16.90
2019-05-25T16:39:48.431Z,14.38
2019-05-25T16:42:19.782Z,16.10
2019-05-25T16:44:51.177Z,20.43
2019-05-25T16:47:24.676Z,19.75
2019-05-25T16:49:56.563Z,14.65
2019-05-25T16:52:27.911Z,20.17
2019-05-25T16:54:59.270Z,16.67
2019-05-25T16:57:30.889Z,20.80
2019-05-25T17:00:02.323Z,14.45
2019-05-25T17:02:34.253Z,18.43
2019-05-25T17:05:06.569Z,17.62
2019-05-25T17:07:38.014Z,15.75
2019-05-25T17:10:09.370Z,13.10
2019-05-25T17:12:40.982Z,15.20
2019-05-25T17:15:12.572Z,12.93
2019-05-25T17:17:44.015Z,15.00
2019-05-25T17:20:15.835Z,14.87
2019-05-25T17:22:47.227Z,13.43
2019-05-25T17:25:18.783Z,13.67
2019-05-25T17:27:50.316Z,17.55
2019-05-25T17:30:24.030Z,13.15
2019-05-25T17:32:55.532Z,15.43
2019-05-25T17:35:27.099Z,16.45
2019-05-25T17:37:58.804Z,15.40
2019-05-25T17:40:30.434Z,12.58
2019-05-25T17:43:01.898Z,12.60
2019-05-25T17:45:33.555Z,15.58
2019-05-25T17:48:06.363Z,16.62
2019-05-25T17:50:38.205Z,17.02
2019-05-25T17:53:09.785Z,15.25
2019-05-25T17:55:41.239Z,15.70
2019-05-25T17:58:12.907Z,19.37
2019-05-25T18:00:46.825Z,13.45
2019-05-25T18:03:18.536Z,15.08
2019-05-25T18:05:50.071Z,11.10
2019-05-25T18:08:21.399Z,15.13
2019-05-25T18:10:54.612Z,12.53
2019-05-25T18:13:28.715Z,11.03
2019-05-25T18:15:58.521Z,13.58
2019-05-25T18:18:30.031Z,14.97
2019-05-25T18:21:01.451Z,13.10
2019-05-25T18:23:33.031Z,12.43
2019-05-25T18:26:04.432Z,14.30
2019-05-25T18:28:36.168Z,12.93
2019-05-25T18:31:07.583Z,10.88
2019-05-25T18:33:39.176Z,12.45
2019-05-25T18:36:10.864Z,12.37
